Time;durP1;ratioP1;P1;durP2;ratioP2;P2;SDS_P1;SDS_P2;PMS_P1;PMS_P2;Temp;Humidity;BMP_temperature;BMP_pressure;BME280_temperature;BME280_humidity;BME280_pressure;Samples;Min_cycle;Max_cycle;Signal;HPM_P1;HPM_P2
2022/02/23 00:02:34;;;;;;;;;12.25;11.00;;;;;11.59;74.44;100386.56;146608;618;46020;-73
2022/02/23 00:05:26;;;;;;;;;14.00;14.00;;;;;11.64;72.68;100398.00;146604;605;45017;-69
2022/02/23 00:08:18;;;;;;;;;11.50;10.00;;;;;11.68;73.31;100397.34;146607;589;46010;-70
2022/02/23 00:11:10;;;;;;;;;11.75;10.00;;;;;11.70;72.79;100398.25;146607;591;46016;-69
2022/02/23 00:14:02;;;;;;;;;9.00;8.50;;;;;11.72;72.87;100408.72;146608;622;45051;-68
2022/02/23 00:16:54;;;;;;;;;8.75;8.25;;;;;11.69;73.09;100403.41;146603;611;46014;-69
2022/02/23 00:19:46;;;;;;;;;8.00;7.00;;;;;11.71;72.76;100413.03;146607;586;46021;-69
2022/02/23 00:22:39;;;;;;;;;9.25;9.00;;;;;11.72;72.41;100413.94;146604;582;46016;-69
2022/02/23 00:25:31;;;;;;;;;15.00;14.00;;;;;11.72;72.05;100414.81;146605;579;46020;-68
2022/02/23 00:28:23;;;;;;;;;17.25;11.75;;;;;11.79;71.82;100423.75;146603;584;46016;-68
2022/02/23 00:31:15;;;;;;;;;9.75;9.75;;;;;11.87;70.97;100425.00;146602;576;47912;-68
2022/02/23 00:34:07;;;;;;;;;11.00;11.00;;;;;11.96;70.57;100427.97;146605;565;46016;-68
2022/02/23 00:36:59;;;;;;;;;17.00;15.25;;;;;12.09;70.13;100431.06;146605;581;46010;-70
2022/02/23 00:39:51;;;;;;;;;16.50;13.00;;;;;12.18;69.79;100439.19;146605;597;46012;-70
2022/02/23 00:42:44;;;;;;;;;11.00;9.00;;;;;12.27;68.24;100430.88;146607;569;46010;-69
2022/02/23 00:45:37;;;;;;;;;11.00;10.00;;;;;12.32;67.43;100429.38;146606;589;46012;-70
2022/02/23 00:48:29;;;;;;;;;6.75;6.00;;;;;12.34;66.07;100428.59;146609;585;46021;-69
2022/02/23 00:51:20;;;;;;;;;8.25;5.25;;;;;12.34;64.08;100423.41;146606;552;46016;-69
2022/02/23 00:54:12;;;;;;;;;3.00;3.00;;;;;12.30;62.22;100416.28;146604;661;46020;-69
2022/02/23 00:57:05;;;;;;;;;3.75;2.25;;;;;12.21;61.12;100421.13;146605;570;47012;-69
2022/02/23 00:59:57;;;;;;;;;4.50;3.00;;;;;12.15;61.52;100427.00;146608;616;46010;-70
2022/02/23 01:02:49;;;;;;;;;4.75;4.00;;;;;12.06;64.29;100437.03;146607;615;46013;-70
2022/02/23 01:05:42;;;;;;;;;7.00;5.50;;;;;12.00;66.12;100444.56;146608;577;46010;-69
2022/02/23 01:08:33;;;;;;;;;4.25;4.00;;;;;11.92;62.48;100453.75;146605;578;46016;-72
2022/02/23 01:11:26;;;;;;;;;4.75;3.75;;;;;11.90;64.77;100456.28;146606;602;46020;-71
2022/02/23 01:14:18;;;;;;;;;2.50;2.50;;;;;11.90;60.87;100439.78;146602;581;46016;-73
2022/02/23 01:17:10;;;;;;;;;2.25;2.25;;;;;11.88;60.57;100441.47;146606;643;46011;-73
2022/02/23 01:20:02;;;;;;;;;5.75;3.50;;;;;11.91;61.81;100454.56;146602;610;46016;-72
2022/02/23 01:22:59;;;;;;;;;2.50;2.50;;;;;11.94;61.02;100447.78;146606;563;46020;-70
2022/02/23 01:25:51;;;;;;;;;4.00;4.00;;;;;11.98;60.71;100448.81;146607;570;46013;-69
2022/02/23 01:28:43;;;;;;;;;5.00;3.50;;;;;12.00;60.22;100435.06;146604;604;46020;-69
2022/02/23 01:31:35;;;;;;;;;5.00;4.25;;;;;12.01;60.87;100448.94;146604;603;46030;-69
2022/02/23 01:34:27;;;;;;;;;4.25;4.00;;;;;12.02;62.68;100463.69;146605;586;46912;-69
2022/02/23 01:37:19;;;;;;;;;8.50;7.25;;;;;11.97;65.83;100473.91;146601;584;46016;-69
2022/02/23 01:40:13;;;;;;;;;8.25;6.75;;;;;11.89;67.52;100477.87;146608;600;46021;-69
2022/02/23 01:43:05;;;;;;;;;8.25;6.50;;;;;11.82;67.14;100487.94;146606;618;46012;-69
2022/02/23 01:45:57;;;;;;;;;6.50;6.50;;;;;11.76;67.26;100489.44;146607;576;46030;-69
2022/02/23 01:48:50;;;;;;;;;7.75;7.75;;;;;11.77;67.28;100482.53;146603;618;47014;-70
2022/02/23 01:51:42;;;;;;;;;7.50;6.50;;;;;11.78;67.92;100494.72;146604;573;46020;-70
2022/02/23 01:54:34;;;;;;;;;8.25;8.00;;;;;11.76;68.43;100514.53;146605;598;46015;-70
2022/02/23 01:57:27;;;;;;;;;11.00;10.00;;;;;11.68;70.02;100515.88;146608;576;46020;-69
2022/02/23 02:00:21;;;;;;;;;12.00;10.25;;;;;11.53;68.94;100517.03;146603;625;46016;-69
2022/02/23 02:03:13;;;;;;;;;11.75;10.50;;;;;11.46;68.88;100514.06;146606;582;46020;-70
2022/02/23 02:06:05;;;;;;;;;13.50;11.75;;;;;11.43;68.75;100512.25;146604;614;46016;-70
2022/02/23 02:08:57;;;;;;;;;8.75;8.25;;;;;11.44;68.49;100516.62;146608;666;46011;-69
2022/02/23 02:11:50;;;;;;;;;13.25;10.25;;;;;11.42;69.55;100523.44;146604;619;46016;-72
2022/02/23 02:14:42;;;;;;;;;11.00;11.00;;;;;11.40;69.67;100531.97;146607;678;46010;-70
2022/02/23 02:17:36;;;;;;;;;1.50;1.50;;;;;11.39;64.18;100525.00;146607;570;46012;-69
2022/02/23 02:20:28;;;;;;;;;2.75;2.00;;;;;11.41;64.02;100528.56;146607;653;47010;-69
2022/02/23 02:23:20;;;;;;;;;2.50;2.50;;;;;11.40;61.34;100551.06;146604;615;46017;-70
2022/02/23 02:26:12;;;;;;;;;1.50;1.50;;;;;11.41;61.32;100545.03;146605;574;46021;-71
2022/02/23 02:29:04;;;;;;;;;2.75;2.75;;;;;11.40;62.69;100543.28;146605;572;47012;-72
2022/02/23 02:31:57;;;;;;;;;1.00;1.00;;;;;11.41;63.00;100554.53;146607;657;46011;-72
2022/02/23 02:34:51;;;;;;;;;4.75;4.50;;;;;11.40;65.10;100555.34;146605;675;46016;-72
2022/02/23 02:37:43;;;;;;;;;3.75;3.00;;;;;11.37;63.15;100556.09;146606;595;46020;-74
2022/02/23 02:40:36;;;;;;;;;3.50;3.00;;;;;11.39;64.38;100566.53;146600;594;47917;-71
2022/02/23 02:43:28;;;;;;;;;0.25;0.00;;;;;11.39;61.57;100564.84;146607;633;47010;-71
2022/02/23 02:46:20;;;;;;;;;1.75;1.75;;;;;11.41;62.47;100614.25;146604;566;46017;-67
2022/02/23 02:49:13;;;;;;;;;2.50;2.50;;;;;11.46;60.77;100615.31;146605;581;46020;-67
2022/02/23 02:52:05;;;;;;;;;3.25;2.25;;;;;11.37;60.30;100608.03;146605;607;46016;-66
2022/02/23 02:54:58;;;;;;;;;2.50;2.25;;;;;11.25;60.52;100600.56;146606;566;46021;-66
2022/02/23 02:57:49;;;;;;;;;3.75;2.75;;;;;11.12;61.04;100597.31;146606;602;46016;-66
2022/02/23 03:00:42;;;;;;;;;3.00;3.00;;;;;11.00;60.77;100621.00;146608;570;46020;-66
2022/02/23 03:03:34;;;;;;;;;3.00;3.00;;;;;10.88;61.74;100610.91;146606;569;46026;-68
2022/02/23 03:06:26;;;;;;;;;4.25;1.75;;;;;10.78;62.00;100590.53;146606;659;46012;-68
2022/02/23 03:09:18;;;;;;;;;3.75;3.50;;;;;10.78;61.67;100585.34;146604;566;46014;-69
2022/02/23 03:12:11;;;;;;;;;8.25;7.00;;;;;10.72;62.04;100609.28;146608;722;46012;-69
2022/02/23 03:15:03;;;;;;;;;26.00;21.75;;;;;10.68;62.11;100616.81;146604;631;46017;-67
2022/02/23 03:17:55;;;;;;;;;15.75;15.50;;;;;10.55;62.28;100611.03;146604;627;46010;-68
2022/02/23 03:20:48;;;;;;;;;12.75;11.00;;;;;10.51;62.05;100632.44;146605;584;46012;-67
2022/02/23 03:23:42;;;;;;;;;10.25;10.25;;;;;10.46;62.59;100643.38;146606;600;46010;-68
2022/02/23 03:26:33;;;;;;;;;5.50;5.00;;;;;10.39;63.01;100629.22;146603;569;46916;-68
2022/02/23 03:29:25;;;;;;;;;6.25;4.75;;;;;10.38;62.70;100628.34;146605;578;46020;-68
2022/02/23 03:32:17;;;;;;;;;6.00;5.00;;;;;10.41;62.65;100622.44;146603;574;46017;-67
2022/02/23 03:35:10;;;;;;;;;9.50;8.25;;;;;10.38;62.95;100617.09;146610;612;46030;-66
2022/02/23 03:38:02;;;;;;;;;6.00;4.75;;;;;10.40;62.73;100623.22;146607;613;46013;-67
2022/02/23 03:40:57;;;;;;;;;4.50;4.00;;;;;9.32;62.45;100438.19;146607;624;46010;-67
2022/02/23 03:43:48;;;;;;;;;6.50;5.75;;;;;10.49;61.59;100640.94;146606;624;46012;-67
2022/02/23 03:46:41;;;;;;;;;5.00;4.00;;;;;10.56;61.53;100637.84;146606;586;46021;-67
2022/02/23 03:49:32;;;;;;;;;4.00;3.25;;;;;10.67;60.76;100641.88;146607;569;46012;-68
2022/02/23 03:52:25;;;;;;;;;3.75;3.25;;;;;10.78;62.55;100647.59;146608;588;46011;-67
2022/02/23 03:55:17;;;;;;;;;4.00;4.00;;;;;10.92;61.48;100643.94;146606;616;46012;-68
2022/02/23 03:58:10;;;;;;;;;4.25;4.25;;;;;11.07;61.09;100636.03;146610;605;46010;-68
2022/02/23 04:01:01;;;;;;;;;3.00;3.00;;;;;11.20;62.31;100637.50;146606;694;46017;-69
2022/02/23 04:03:54;;;;;;;;;3.25;2.00;;;;;11.31;61.86;100633.72;146609;600;46020;-67
2022/02/23 04:06:45;;;;;;;;;8.25;8.25;;;;;11.40;61.53;100623.75;146606;600;46017;-68
2022/02/23 04:09:38;;;;;;;;;8.50;8.50;;;;;11.49;61.97;100626.72;146606;595;47010;-71
2022/02/23 04:12:30;;;;;;;;;8.00;8.00;;;;;11.54;62.13;100624.38;146604;587;46916;-69
2022/02/23 04:15:22;;;;;;;;;10.00;8.00;;;;;11.55;62.58;100634.81;146602;610;46021;-68
2022/02/23 04:18:14;;;;;;;;;7.50;6.00;;;;;11.55;62.85;100640.00;146606;602;47012;-69
2022/02/23 04:21:07;;;;;;;;;4.00;4.00;;;;;11.56;63.51;100640.91;146608;564;46010;-68
2022/02/23 04:23:59;;;;;;;;;5.75;5.00;;;;;10.44;64.58;100451.50;146605;577;46917;-68
2022/02/23 04:26:51;;;;;;;;;5.00;5.00;;;;;11.48;64.20;100643.16;146608;611;46010;-67
2022/02/23 04:29:43;;;;;;;;;11.25;10.25;;;;;11.45;65.68;100653.38;146605;611;46016;-68
2022/02/23 04:32:36;;;;;;;;;8.00;6.50;;;;;11.34;65.07;100665.00;146609;590;46010;-67
2022/02/23 04:35:28;;;;;;;;;6.75;6.50;;;;;11.26;65.77;100680.19;146604;602;46036;-67
2022/02/23 04:38:20;;;;;;;;;44.25;36.25;;;;;11.16;65.37;100679.69;146606;696;47011;-67
2022/02/23 04:41:13;;;;;;;;;11.75;9.50;;;;;11.12;65.63;100675.16;146605;579;46016;-66
2022/02/23 04:44:06;;;;;;;;;13.50;11.50;;;;;11.12;65.51;100675.16;146606;577;46010;-68
2022/02/23 04:46:58;;;;;;;;;29.25;25.00;;;;;11.12;65.79;100670.87;146604;572;46012;-70
2022/02/23 04:49:51;;;;;;;;;14.25;13.25;;;;;11.10;66.10;100675.09;146607;576;46010;-69
2022/02/23 04:52:43;;;;;;;;;9.75;9.00;;;;;9.93;68.39;100484.37;146605;609;46016;-68
2022/02/23 04:55:38;;;;;;;;;9.00;9.00;;;;;10.92;69.24;100677.69;146606;569;47010;-70
2022/02/23 04:58:30;;;;;;;;;11.50;8.75;;;;;10.76;69.05;100678.63;146603;572;47012;-68
2022/02/23 05:01:22;;;;;;;;;9.75;8.00;;;;;10.67;68.51;100685.06;146608;570;46010;-68
2022/02/23 05:04:15;;;;;;;;;8.50;7.00;;;;;10.59;67.71;100672.62;146605;610;46016;-68
2022/02/23 05:07:07;;;;;;;;;30.00;26.75;;;;;10.64;67.74;100684.09;146608;608;46010;-68
2022/02/23 05:09:59;;;;;;;;;9.75;7.50;;;;;10.66;68.73;100689.38;146602;674;46916;-69
2022/02/23 05:12:51;;;;;;;;;10.00;10.00;;;;;10.60;69.19;100702.91;146606;565;46010;-69
2022/02/23 05:15:43;;;;;;;;;6.00;6.00;;;;;10.51;68.81;100707.63;146606;672;46014;-70
2022/02/23 05:18:36;;;;;;;;;8.00;7.50;;;;;10.51;68.61;100735.25;146608;594;46010;-68
2022/02/23 05:21:28;;;;;;;;;14.25;10.00;;;;;10.56;68.50;100741.53;146605;659;46012;-69
2022/02/23 05:24:20;;;;;;;;;17.25;13.75;;;;;10.58;69.18;100746.00;146605;605;46010;-67
2022/02/23 05:27:12;;;;;;;;;16.50;12.50;;;;;10.66;67.43;100761.97;146604;577;46916;-67
2022/02/23 05:30:04;;;;;;;;;12.75;8.50;;;;;10.67;64.74;100771.53;146606;595;47010;-66
2022/02/23 05:32:56;;;;;;;;;11.00;9.00;;;;;10.73;65.12;100779.63;146607;599;46012;-67
2022/02/23 05:35:48;;;;;;;;;4.25;4.00;;;;;10.83;65.10;100788.75;146608;703;46020;-68
2022/02/23 05:38:40;;;;;;;;;5.25;4.25;;;;;10.90;65.80;100788.25;146603;634;46016;-68
2022/02/23 05:41:33;;;;;;;;;7.00;6.00;;;;;9.94;65.34;100608.81;146610;596;47010;-68
2022/02/23 05:44:25;;;;;;;;;6.75;6.75;;;;;11.14;65.32;100822.34;146605;609;46016;-67
2022/02/23 05:47:17;;;;;;;;;8.00;8.00;;;;;11.22;65.92;100834.00;146604;624;47010;-67
2022/02/23 05:50:10;;;;;;;;;13.25;12.50;;;;;11.27;65.55;100831.62;146600;603;47012;-67
2022/02/23 05:53:02;;;;;;;;;10.00;10.00;;;;;11.32;65.48;100837.94;146604;589;47010;-67
2022/02/23 05:55:54;;;;;;;;;5.25;3.50;;;;;11.34;62.11;100849.31;146605;618;46916;-69
2022/02/23 05:58:46;;;;;;;;;3.00;3.00;;;;;11.31;60.45;100836.19;146609;576;46010;-68
2022/02/23 06:01:39;;;;;;;;;1.50;1.50;;;;;11.33;60.56;100852.69;146606;563;46016;-69
2022/02/23 06:04:34;;;;;;;;;4.50;4.50;;;;;11.34;59.43;100867.50;146610;624;46010;-69
2022/02/23 06:07:26;;;;;;;;;5.00;4.25;;;;;11.37;59.05;100870.25;146604;669;47012;-69
2022/02/23 06:10:18;;;;;;;;;4.25;4.25;;;;;11.38;59.29;100877.19;146607;620;47010;-68
2022/02/23 06:13:10;;;;;;;;;3.00;2.00;;;;;11.37;59.65;100880.63;146606;613;46013;-69
2022/02/23 06:16:02;;;;;;;;;2.75;2.75;;;;;11.36;59.68;100885.72;146609;563;46010;-70
2022/02/23 06:18:55;;;;;;;;;8.00;8.00;;;;;11.26;59.58;100886.97;146628;628;45016;-67
2022/02/23 06:21:47;;;;;;;;;9.25;7.50;;;;;11.16;60.31;100871.75;146628;581;46011;-68
2022/02/23 06:24:39;;;;;;;;;6.25;6.25;;;;;11.01;60.99;100885.69;146629;598;45012;-68
2022/02/23 06:27:31;;;;;;;;;3.50;3.00;;;;;10.93;60.65;100893.88;146632;616;45029;-68
2022/02/23 06:30:23;;;;;;;;;5.25;5.25;;;;;10.91;60.11;100892.94;146630;573;45012;-69
2022/02/23 06:33:22;;;;;;;;;4.50;4.50;;;;;10.90;60.66;100894.63;146626;590;45913;-68
2022/02/23 06:36:15;;;;;;;;;3.25;2.00;;;;;10.91;60.69;100914.56;146625;564;45017;-68
2022/02/23 06:39:08;;;;;;;;;5.75;4.50;;;;;10.90;60.65;100910.19;146630;611;45010;-68
2022/02/23 06:42:01;;;;;;;;;3.75;3.75;;;;;10.92;60.45;100907.69;146628;617;45917;-68
2022/02/23 06:44:53;;;;;;;;;4.25;3.00;;;;;10.96;59.38;100912.22;146626;609;45021;-68
2022/02/23 06:47:45;;;;;;;;;3.75;3.50;;;;;11.01;59.46;100928.91;146623;592;45016;-69
2022/02/23 06:50:39;;;;;;;;;3.50;3.50;;;;;11.01;58.78;100906.47;146631;604;45010;-68
2022/02/23 06:53:31;;;;;;;;;4.00;4.00;;;;;11.07;59.82;100926.66;146630;578;45012;-72
2022/02/23 06:56:23;;;;;;;;;2.25;2.25;;;;;11.15;59.62;100932.22;146630;574;45012;-69
2022/02/23 06:59:15;;;;;;;;;4.25;3.25;;;;;11.20;59.39;100925.59;146627;594;45014;-69
2022/02/23 07:02:08;;;;;;;;;4.50;4.00;;;;;11.21;59.39;100923.03;146628;569;45913;-66
2022/02/23 07:05:00;;;;;;;;;7.50;3.50;;;;;11.23;58.44;100934.41;146625;571;45017;-69
2022/02/23 07:07:52;;;;;;;;;4.00;4.00;;;;;11.26;58.64;100944.06;146628;580;45020;-68
2022/02/23 07:10:45;;;;;;;;;6.75;6.75;;;;;11.22;59.11;100929.16;146626;634;45016;-69
2022/02/23 07:13:39;;;;;;;;;6.50;6.25;;;;;11.27;58.50;100956.22;146628;569;45021;-69
2022/02/23 07:16:31;;;;;;;;;7.00;5.00;;;;;11.32;58.96;100954.78;146625;576;46012;-69
2022/02/23 07:19:24;;;;;;;;;8.00;7.00;;;;;9.58;59.20;100638.81;146607;608;47010;-69
2022/02/23 07:22:16;;;;;;;;;9.25;8.00;;;;;11.37;59.19;100957.59;146603;643;46016;-69
2022/02/23 07:25:10;;;;;;;;;11.50;11.50;;;;;11.39;59.26;100953.38;146607;564;46012;-69
2022/02/23 07:28:03;;;;;;;;;11.00;8.00;;;;;11.38;58.74;100965.47;146604;569;46017;-70
2022/02/23 07:30:55;;;;;;;;;5.25;4.50;;;;;9.34;59.04;100598.66;146607;596;46019;-70
2022/02/23 07:33:47;;;;;;;;;3.50;3.50;;;;;11.39;59.04;100971.56;146606;632;46014;-71
2022/02/23 07:36:39;;;;;;;;;3.25;2.75;;;;;11.43;60.05;100934.53;146606;574;46010;-71
2022/02/23 07:39:31;;;;;;;;;5.00;4.25;;;;;11.46;59.29;100922.59;146603;665;47012;-70
2022/02/23 07:42:23;;;;;;;;;4.75;4.75;;;;;11.55;58.83;100936.06;146607;663;47010;-71
2022/02/23 07:45:16;;;;;;;;;4.25;4.25;;;;;11.65;58.02;100958.22;146606;564;46033;-71
2022/02/23 07:48:09;;;;;;;;;6.25;5.25;;;;;11.78;58.36;100951.91;146607;571;46020;-70
2022/02/23 07:51:03;;;;;;;;;6.00;6.00;;;;;11.89;57.88;100939.47;146603;585;46017;-71
2022/02/23 07:53:56;;;;;;;;;12.25;11.50;;;;;12.00;58.52;100948.72;146609;572;46020;-70
2022/02/23 07:56:48;;;;;;;;;6.75;5.75;;;;;12.15;58.09;100951.13;146604;595;46013;-71
2022/02/23 07:59:40;;;;;;;;;5.00;5.00;;;;;12.24;57.96;100967.19;146605;605;46021;-69
2022/02/23 08:02:35;;;;;;;;;5.50;5.00;;;;;12.29;57.72;100970.91;146606;635;45016;-69
2022/02/23 08:05:28;;;;;;;;;8.00;8.00;;;;;12.38;58.00;100952.25;146605;570;47012;-70
2022/02/23 08:08:20;;;;;;;;;6.50;6.00;;;;;12.50;57.70;100955.44;146604;593;47012;-68
2022/02/23 08:11:12;;;;;;;;;7.00;7.00;;;;;12.62;56.87;100949.94;146605;615;46020;-69
2022/02/23 08:14:04;;;;;;;;;8.25;7.50;;;;;12.72;56.90;100941.72;146605;649;46014;-72
2022/02/23 08:20:12;;;;;;;;;6.50;6.50;;;;;12.99;55.62;100959.41;146601;576;46017;-70
2022/02/23 08:23:05;;;;;;;;;6.50;6.00;;;;;13.06;55.21;100975.38;146607;720;46020;-68
2022/02/23 08:25:57;;;;;;;;;7.75;7.75;;;;;13.14;55.43;100971.38;146607;612;45916;-70
2022/02/23 08:28:50;;;;;;;;;8.50;6.50;;;;;13.37;55.02;100961.16;146609;632;47010;-70
2022/02/23 08:31:42;;;;;;;;;8.75;7.25;;;;;13.52;54.72;100966.09;146607;675;46012;-69
2022/02/23 08:34:34;;;;;;;;;10.75;10.75;;;;;13.59;53.75;100957.75;146607;561;46010;-71
2022/02/23 08:37:28;;;;;;;;;16.25;13.50;;;;;13.80;52.61;100987.34;146601;575;46916;-70
2022/02/23 08:40:20;;;;;;;;;5.25;5.25;;;;;12.91;53.26;100813.31;146608;573;46021;-70
2022/02/23 08:43:12;;;;;;;;;6.00;5.00;;;;;14.14;53.62;100996.53;146606;673;46917;-68
2022/02/23 08:46:04;;;;;;;;;4.00;3.00;;;;;14.36;52.32;100981.75;146606;576;46020;-67
2022/02/23 08:48:56;;;;;;;;;5.25;5.25;;;;;14.53;51.00;101017.28;146606;583;46013;-71
2022/02/23 08:51:50;;;;;;;;;6.50;6.00;;;;;14.78;50.93;101013.91;146605;613;46020;-70
2022/02/23 08:54:42;;;;;;;;;4.00;4.00;;;;;14.99;51.97;101011.25;146605;646;46016;-71
2022/02/23 08:57:35;;;;;;;;;13.25;10.75;;;;;15.20;50.16;101014.66;146610;570;46012;-71
2022/02/23 09:00:27;;;;;;;;;6.25;2.25;;;;;15.34;48.65;101049.12;146606;663;46916;-72
2022/02/23 09:03:21;;;;;;;;;3.75;3.75;;;;;15.47;49.67;101060.91;146607;717;46010;-71
2022/02/23 09:06:13;;;;;;;;;3.75;3.25;;;;;15.55;50.42;101046.41;146605;566;46012;-71
2022/02/23 09:09:11;;;;;;;;;3.00;3.00;;;;;15.74;50.45;101063.69;146603;571;47010;-70
2022/02/23 09:12:02;;;;;;;;;6.25;5.75;;;;;15.91;49.43;101038.09;146604;576;46017;-71
2022/02/23 09:14:55;;;;;;;;;8.75;8.00;;;;;15.99;49.80;101044.50;146607;574;47012;-73
2022/02/23 09:17:48;;;;;;;;;5.50;5.25;;;;;16.13;47.91;101058.91;146607;577;46012;-71
2022/02/23 09:20:40;;;;;;;;;4.00;4.00;;;;;16.31;47.83;101076.09;146609;592;46010;-71
2022/02/23 09:23:32;;;;;;;;;3.75;3.75;;;;;16.47;47.88;101090.56;146606;614;45916;-72
2022/02/23 09:26:24;;;;;;;;;4.75;4.75;;;;;16.43;47.68;101089.59;146608;645;46021;-72
2022/02/23 09:29:17;;;;;;;;;5.25;5.25;;;;;16.29;48.14;101090.84;146602;595;47012;-71
2022/02/23 09:32:10;;;;;;;;;2.75;2.75;;;;;16.14;50.26;101083.38;146609;565;46010;-71
2022/02/23 09:35:02;;;;;;;;;1.75;1.75;;;;;15.91;48.34;101091.28;146607;569;46016;-71
2022/02/23 09:37:57;;;;;;;;;3.75;3.75;;;;;15.65;49.58;101094.69;146611;565;46010;-71
2022/02/23 09:40:56;;;;;;;;;4.50;4.50;;;;;15.48;50.60;101100.19;146606;612;47013;-71
2022/02/23 09:43:53;;;;;;;;;5.25;4.50;;;;;15.36;49.44;101084.03;146606;643;46030;-70
2022/02/23 09:46:46;;;;;;;;;5.00;3.75;;;;;15.19;49.74;101087.72;146606;596;46012;-70
2022/02/23 09:49:41;;;;;;;;;9.00;9.00;;;;;14.91;49.26;101083.16;146609;628;46010;-69
2022/02/23 09:52:33;;;;;;;;;5.00;5.00;;;;;14.70;50.85;101097.16;146604;563;46916;-71
2022/02/23 09:55:27;;;;;;;;;7.00;7.00;;;;;14.59;51.73;101100.16;146606;613;46021;-70
2022/02/23 09:58:19;;;;;;;;;5.00;5.00;;;;;14.46;51.65;101091.78;146607;570;46012;-71
2022/02/23 10:01:13;;;;;;;;;3.00;3.00;;;;;14.38;51.56;101105.34;146603;702;46020;-71
2022/02/23 10:04:07;;;;;;;;;3.25;3.25;;;;;14.31;52.00;101099.84;146604;605;46917;-71
2022/02/23 10:07:04;;;;;;;;;6.25;6.00;;;;;14.25;52.68;101088.28;146609;734;46010;-70
2022/02/23 10:09:57;;;;;;;;;4.75;4.00;;;;;14.17;51.11;101081.84;146604;611;46013;-70
2022/02/23 10:12:59;;;;;;;;;2.00;2.00;;;;;14.06;51.72;101094.44;146606;676;46020;-71
2022/02/23 10:15:51;;;;;;;;;4.75;4.50;;;;;14.01;52.03;101090.72;146606;566;46014;-70
2022/02/23 10:18:43;;;;;;;;;1.50;1.50;;;;;14.00;51.57;101087.22;146607;688;46011;-70
2022/02/23 10:21:48;;;;;;;;;8.00;8.00;;;;;13.98;53.31;101077.56;146606;599;46012;-70
2022/02/23 10:24:43;;;;;;;;;4.25;3.25;;;;;14.05;52.01;101062.25;146606;595;46020;-70
2022/02/23 10:27:37;;;;;;;;;4.00;4.00;;;;;13.07;51.43;100883.44;146607;564;46012;-71
2022/02/23 10:30:31;;;;;;;;;3.00;3.00;;;;;14.19;51.44;101068.03;146607;607;46010;-70
2022/02/23 10:33:38;;;;;;;;;2.50;2.50;;;;;14.35;50.92;101071.28;146605;603;46917;-71
2022/02/23 10:36:39;;;;;;;;;2.00;1.00;;;;;14.36;51.20;101086.09;146612;580;46010;-71
2022/02/23 10:40:03;;;;;;;;;4.50;4.50;;;;;14.13;52.03;101072.09;146603;619;47015;-70
2022/02/23 10:42:55;;;;;;;;;7.50;7.00;;;;;14.40;51.97;101096.75;146610;660;46020;-70
2022/02/23 10:45:49;;;;;;;;;3.00;3.00;;;;;14.51;50.63;101097.22;146605;609;46014;-70
2022/02/23 10:48:45;;;;;;;;;6.00;5.00;;;;;14.59;51.92;101098.44;146610;626;46020;-69
2022/02/23 10:51:42;;;;;;;;;4.00;4.00;;;;;14.58;50.92;101086.22;146602;629;46016;-70
2022/02/23 10:54:35;;;;;;;;;13.25;12.25;;;;;14.50;50.86;101064.97;146603;573;48021;-70
2022/02/23 10:57:28;;;;;;;;;2.00;2.00;;;;;14.42;50.37;101089.84;146605;674;46016;-69
2022/02/23 11:00:26;;;;;;;;;9.00;8.00;;;;;14.34;50.53;101078.22;146606;703;46010;-69
2022/02/23 11:03:18;;;;;;;;;4.25;3.50;;;;;14.23;50.75;101084.69;146603;600;46016;-69
2022/02/23 11:06:11;;;;;;;;;7.00;5.25;;;;;14.16;51.26;101080.06;146609;563;46010;-69
2022/02/23 11:09:04;;;;;;;;;11.50;9.50;;;;;14.16;51.20;101098.31;146602;610;46016;-69
2022/02/23 11:11:57;;;;;;;;;8.00;7.50;;;;;14.19;51.92;101086.28;146606;619;46020;-69
2022/02/23 11:14:50;;;;;;;;;6.00;6.00;;;;;14.23;51.51;101067.34;146603;626;46016;-69
2022/02/23 11:17:43;;;;;;;;;7.75;5.75;;;;;14.20;52.02;101069.81;146607;601;46021;-69
2022/02/23 11:20:36;;;;;;;;;5.00;4.00;;;;;14.19;51.35;101069.75;146606;624;46016;-70
2022/02/23 11:23:29;;;;;;;;;3.25;2.00;;;;;14.19;50.64;101055.00;146608;688;46010;-69
2022/02/23 11:26:23;;;;;;;;;4.50;4.50;;;;;14.19;50.27;101065.44;146605;616;47012;-69
2022/02/23 11:29:40;;;;;;;;;6.75;4.25;;;;;14.17;51.63;101080.13;146606;563;46010;-69
2022/02/23 11:32:45;;;;;;;;;4.00;3.00;;;;;14.16;50.72;101090.50;146605;670;47013;-69
2022/02/23 11:35:49;;;;;;;;;6.50;4.50;;;;;14.15;51.14;101073.06;146605;619;46023;-69
2022/02/23 11:38:41;;;;;;;;;6.50;4.50;;;;;14.08;50.71;101085.84;146603;576;46017;-69
2022/02/23 11:41:39;;;;;;;;;4.00;4.00;;;;;14.07;50.39;101085.78;146608;658;46010;-70
2022/02/23 11:44:38;;;;;;;;;3.50;3.25;;;;;14.03;50.45;101091.69;146606;732;46012;-69
2022/02/23 11:47:31;;;;;;;;;4.00;4.00;;;;;13.93;50.31;101089.53;146608;610;46021;-70
2022/02/23 11:50:28;;;;;;;;;10.25;9.00;;;;;13.88;51.43;101088.41;146606;601;46012;-69
2022/02/23 11:53:21;;;;;;;;;10.00;9.00;;;;;13.88;50.85;101091.91;146607;577;46020;-71
2022/02/23 11:56:20;;;;;;;;;5.00;5.00;;;;;13.88;51.26;101086.69;146604;651;46016;-69
2022/02/23 11:59:13;;;;;;;;;42.50;32.25;;;;;13.90;50.31;101089.38;146606;569;46010;-69
2022/02/23 12:02:13;;;;;;;;;38.25;32.00;;;;;13.91;51.22;101093.75;146604;569;46013;-70
2022/02/23 12:05:08;;;;;;;;;45.50;32.75;;;;;13.85;50.68;101091.78;146606;628;46010;-69
2022/02/23 12:08:00;;;;;;;;;25.75;23.00;;;;;13.85;51.48;101091.78;146602;567;46016;-69
2022/02/23 12:10:52;;;;;;;;;5.25;5.25;;;;;13.86;50.74;101097.06;146608;635;46010;-69
2022/02/23 12:13:51;;;;;;;;;10.00;8.75;;;;;13.91;52.28;101099.88;146606;565;46014;-69
2022/02/23 12:16:48;;;;;;;;;7.00;7.00;;;;;13.98;52.61;101098.41;146610;619;46012;-69
2022/02/23 12:19:46;;;;;;;;;18.50;17.50;;;;;14.07;52.34;101104.91;146604;590;46916;-72
2022/02/23 12:22:41;;;;;;;;;17.25;15.00;;;;;14.19;52.57;101104.56;146609;653;45031;-71
2022/02/23 12:25:55;;;;;;;;;23.75;20.50;;;;;14.31;52.35;101104.19;146602;604;46017;-70
2022/02/23 12:28:50;;;;;;;;;3.50;3.50;;;;;14.36;50.18;101100.06;146606;565;46010;-69
2022/02/23 12:31:45;;;;;;;;;13.25;12.50;;;;;14.39;50.14;101101.87;146604;735;46016;-71
2022/02/23 12:34:40;;;;;;;;;15.00;13.75;;;;;14.40;51.09;101104.56;146606;651;46012;-71
2022/02/23 12:37:34;;;;;;;;;22.25;19.75;;;;;14.44;52.02;101109.09;146605;688;46012;-70
2022/02/23 12:40:26;;;;;;;;;24.00;24.00;;;;;14.57;51.93;101110.50;146603;588;47010;-70
2022/02/23 12:43:20;;;;;;;;;17.00;16.00;;;;;14.68;51.36;101106.62;146605;565;46012;-70
2022/02/23 12:46:12;;;;;;;;;5.50;5.00;;;;;14.86;51.13;101105.56;146608;570;46011;-69
2022/02/23 12:49:05;;;;;;;;;12.50;12.25;;;;;14.98;50.89;101101.75;146604;684;46025;-70
2022/02/23 12:51:58;;;;;;;;;14.25;14.25;;;;;15.15;49.79;101110.22;146606;647;47010;-70
2022/02/23 12:54:55;;;;;;;;;8.25;6.50;;;;;15.28;50.41;101101.16;146607;585;46013;-70
2022/02/23 12:57:52;;;;;;;;;6.75;6.75;;;;;15.66;50.38;101099.94;146604;578;46020;-70
2022/02/23 13:00:51;;;;;;;;;10.25;10.25;;;;;16.10;48.31;101105.03;146603;560;46016;-69
2022/02/23 13:03:43;;;;;;;;;7.75;7.75;;;;;16.38;48.88;101101.63;146608;660;46010;-70
2022/02/23 13:06:41;;;;;;;;;7.00;6.00;;;;;16.50;46.03;101099.41;146606;662;47012;-70
2022/02/23 13:09:55;;;;;;;;;7.75;7.75;;;;;16.55;49.50;101100.47;146607;657;46021;-64
2022/02/23 13:12:52;;;;;;;;;10.00;7.50;;;;;16.63;49.27;101109.47;146604;702;46016;-68
2022/02/23 13:15:44;;;;;;;;;7.25;6.75;;;;;16.79;47.52;101112.59;146609;646;46010;-67
2022/02/23 13:18:38;;;;;;;;;10.75;10.50;;;;;16.85;46.24;101115.41;146606;664;46012;-69
2022/02/23 13:21:45;;;;;;;;;14.75;11.50;;;;;16.70;47.19;101118.41;146605;728;46020;-68
2022/02/23 13:24:51;;;;;;;;;11.25;10.75;;;;;16.35;48.02;101128.59;146606;571;46017;-69
2022/02/23 13:27:43;;;;;;;;;11.50;11.50;;;;;15.91;49.11;101133.13;146604;616;46010;-68